createdAt,value
2019-05-21T00:00:28.597Z,96789.89
2019-05-21T00:02:57.907Z,96788.92
2019-05-21T00:05:27.395Z,96787.82
2019-05-21T00:07:56.716Z,96789.97
2019-05-21T00:10:25.993Z,96790.89
2019-05-21T00:12:55.247Z,96795.02
2019-05-21T00:15:24.542Z,96783.11
2019-05-21T00:17:53.810Z,96788.20
2019-05-21T00:20:23.112Z,96786.77
2019-05-21T00:22:52.411Z,96791.86
2019-05-21T00:25:21.740Z,96790.23
2019-05-21T00:27:51.014Z,96794.20
2019-05-21T00:30:56.105Z,96782.23
2019-05-21T00:34:01.376Z,96786.17
2019-05-21T00:37:08.382Z,96783.06
2019-05-21T00:40:13.453Z,96779.92
2019-05-21T00:42:44.936Z,96785.39
2019-05-21T00:45:14.426Z,96781.91
2019-05-21T00:47:45.203Z,96786.59
2019-05-21T00:50:14.685Z,96782.69
2019-05-21T00:52:44.008Z,96786.02
2019-05-21T00:55:13.413Z,96783.52
2019-05-21T00:57:42.717Z,96786.64
2019-05-21T01:00:12.636Z,96786.45
2019-05-21T01:02:41.982Z,96791.34
2019-05-21T01:05:11.276Z,96786.26
2019-05-21T01:07:40.580Z,96782.56
2019-05-21T01:10:10.057Z,96778.83
2019-05-21T01:12:39.333Z,96788.08
2019-05-21T01:15:09.662Z,96783.38
2019-05-21T01:17:38.956Z,96788.08
2019-05-21T01:20:08.671Z,96787.28
2019-05-21T01:22:37.979Z,96790.59
2019-05-21T01:25:07.571Z,96796.30
2019-05-21T01:27:36.844Z,96800.00
2019-05-21T01:30:06.810Z,96802.35
2019-05-21T01:32:36.156Z,96803.14
2019-05-21T01:35:16.545Z,96799.98
2019-05-21T01:37:36.708Z,96800.75
2019-05-21T01:40:06.011Z,96802.91
2019-05-21T01:42:35.304Z,96799.05
2019-05-21T01:45:05.360Z,96801.39
2019-05-21T01:47:34.662Z,96799.42
2019-05-21T01:50:03.970Z,96798.82
2019-05-21T01:52:34.281Z,96796.67
2019-05-21T01:55:03.577Z,96800.40
2019-05-21T01:57:32.874Z,96789.05
2019-05-21T02:00:03.006Z,96793.56
2019-05-21T02:02:32.295Z,96791.01
2019-05-21T02:05:01.594Z,96797.08
2019-05-21T02:07:30.969Z,96797.48
2019-05-21T02:10:00.382Z,96798.06
2019-05-21T02:12:29.670Z,96795.36
2019-05-21T02:15:00.348Z,96790.23
2019-05-21T02:17:29.649Z,96790.08
2019-05-21T02:19:58.957Z,96793.80
2019-05-21T02:22:29.360Z,96790.86
2019-05-21T02:24:58.666Z,96789.30
2019-05-21T02:27:27.974Z,96789.69
2019-05-21T02:29:57.266Z,96794.78
2019-05-21T02:32:26.559Z,96788.91
2019-05-21T02:34:55.880Z,96790.09
2019-05-21T02:37:25.162Z,96795.77
2019-05-21T02:39:54.490Z,96792.05
2019-05-21T02:42:23.813Z,96795.21
2019-05-21T02:44:54.523Z,96790.91
2019-05-21T02:47:24.150Z,96785.78
2019-05-21T02:49:53.462Z,96776.98
2019-05-21T02:52:24.206Z,96792.28
2019-05-21T02:54:54.973Z,96787.39
2019-05-21T02:57:27.351Z,96790.72
2019-05-21T02:59:58.441Z,96788.56
2019-05-21T03:02:36.763Z,96785.44
2019-05-21T03:05:07.109Z,96790.33
2019-05-21T03:07:37.874Z,96801.88
2019-05-21T03:10:08.859Z,96794.83
2019-05-21T03:12:38.184Z,96805.98
2019-05-21T03:15:07.986Z,96805.62
2019-05-21T03:17:37.290Z,96810.51
2019-05-21T03:20:06.711Z,96806.37
2019-05-21T03:22:36.062Z,96806.98
2019-05-21T03:25:05.699Z,96815.20
2019-05-21T03:27:35.018Z,96813.63
2019-05-21T03:30:04.662Z,96809.33
2019-05-21T03:32:33.966Z,96811.67
2019-05-21T03:35:03.530Z,96810.53
2019-05-21T03:37:32.806Z,96821.84
2019-05-21T03:40:03.097Z,96810.89
2019-05-21T03:42:32.435Z,96816.00
2019-05-21T03:45:01.826Z,96814.43
2019-05-21T03:47:31.269Z,96814.82
2019-05-21T03:50:00.577Z,96819.72
2019-05-21T03:52:29.871Z,96816.58
2019-05-21T03:55:02.825Z,96821.08
2019-05-21T03:57:30.213Z,96819.12
2019-05-21T03:59:59.583Z,96820.30
2019-05-21T04:02:28.917Z,96813.28
2019-05-21T04:04:58.285Z,96821.07
2019-05-21T04:07:27.563Z,96819.53
2019-05-21T04:09:56.890Z,96829.28
2019-05-21T04:12:26.247Z,96831.06
2019-05-21T04:14:59.802Z,96836.31
2019-05-21T04:17:54.116Z,96833.19
2019-05-21T04:20:23.420Z,96832.80
2019-05-21T04:22:52.720Z,96834.39
2019-05-21T04:25:23.304Z,96837.11
2019-05-21T04:27:52.828Z,96839.84
2019-05-21T04:30:22.103Z,96842.98
2019-05-21T04:32:51.408Z,96837.11
2019-05-21T04:35:20.686Z,96846.11
2019-05-21T04:37:49.953Z,96847.88
2019-05-21T04:40:19.228Z,96856.67
2019-05-21T04:42:48.551Z,96854.13
2019-05-21T04:45:17.990Z,96852.55
2019-05-21T04:47:47.284Z,96852.55
2019-05-21T04:50:16.549Z,96852.35
2019-05-21T04:52:45.811Z,96852.77
2019-05-21T04:55:15.135Z,96845.70
2019-05-21T04:57:44.412Z,96857.84
2019-05-21T05:00:13.914Z,96855.49
2019-05-21T05:02:43.192Z,96861.55
2019-05-21T05:05:14.797Z,96869.58
2019-05-21T05:07:44.786Z,96864.88
2019-05-21T05:10:15.196Z,96864.08
2019-05-21T05:12:47.022Z,96862.72
2019-05-21T05:15:18.435Z,96871.91
2019-05-21T05:17:48.414Z,96870.74
2019-05-21T05:20:18.551Z,96866.64
2019-05-21T05:22:48.160Z,96869.19
2019-05-21T05:25:18.010Z,96872.31
2019-05-21T05:27:47.612Z,96873.66
2019-05-21T05:30:17.618Z,96878.97
2019-05-21T05:32:47.797Z,96882.27
2019-05-21T05:35:18.755Z,96883.08
2019-05-21T05:37:49.166Z,96884.81
2019-05-21T05:40:20.559Z,96889.91
2019-05-21T05:42:49.980Z,96889.31
2019-05-21T05:45:21.484Z,96888.94
2019-05-21T05:47:50.943Z,96897.73
2019-05-21T05:50:22.498Z,96891.67
2019-05-21T05:52:51.971Z,96898.52
2019-05-21T05:55:21.636Z,96904.19
2019-05-21T05:57:51.096Z,96902.42
2019-05-21T06:00:21.313Z,96911.22
2019-05-21T06:02:50.592Z,96906.34
2019-05-21T06:05:19.884Z,96906.92
2019-05-21T06:07:59.242Z,96902.03
2019-05-21T06:10:22.027Z,96899.69
2019-05-21T06:12:51.312Z,96905.16
2019-05-21T06:15:21.975Z,96905.14
2019-05-21T06:17:51.545Z,96908.67
2019-05-21T06:20:22.135Z,96915.49
2019-05-21T06:22:51.402Z,96910.62
2019-05-21T06:25:20.712Z,96914.16
2019-05-21T06:27:50.021Z,96914.53
2019-05-21T06:30:20.107Z,96933.14
2019-05-21T06:32:49.390Z,96925.50
2019-05-21T06:35:18.737Z,96926.69
2019-05-21T06:37:48.064Z,96935.30
2019-05-21T06:40:18.353Z,96939.80
2019-05-21T06:42:47.653Z,96935.09
2019-05-21T06:45:18.746Z,96942.72
2019-05-21T06:47:48.085Z,96941.75
2019-05-21T06:50:17.402Z,96944.66
2019-05-21T06:52:46.729Z,96954.08
2019-05-21T06:55:16.081Z,96949.17
2019-05-21T06:57:45.377Z,96954.07
2019-05-21T07:00:15.519Z,96959.36
2019-05-21T07:02:44.818Z,96953.46
2019-05-21T07:05:14.107Z,96956.80
2019-05-21T07:07:43.422Z,96952.88
2019-05-21T07:10:13.046Z,96954.44
2019-05-21T07:12:42.335Z,96960.91
2019-05-21T07:15:12.038Z,96965.22
2019-05-21T07:17:41.375Z,96965.81
2019-05-21T07:20:12.545Z,96965.21
2019-05-21T07:22:41.902Z,96976.17
2019-05-21T07:25:11.491Z,96972.08
2019-05-21T07:27:40.792Z,96980.69
2019-05-21T07:30:11.235Z,96984.98
2019-05-21T07:32:40.600Z,96985.38
2019-05-21T07:35:10.073Z,96977.16
2019-05-21T07:37:39.418Z,96982.63
2019-05-21T07:40:09.984Z,96994.19
2019-05-21T07:42:39.390Z,96986.16
2019-05-21T07:45:08.925Z,96981.47
2019-05-21T07:47:38.262Z,96985.78
2019-05-21T07:50:08.177Z,96985.78
2019-05-21T07:52:37.474Z,96979.48
2019-05-21T07:55:07.104Z,96981.08
2019-05-21T07:57:36.386Z,96983.44
2019-05-21T08:00:07.459Z,96985.75
2019-05-21T08:02:36.765Z,96992.61
2019-05-21T08:05:06.667Z,96986.14
2019-05-21T08:07:35.951Z,96991.63
2019-05-21T08:10:06.425Z,96994.77
2019-05-21T08:12:39.519Z,96994.59
2019-05-21T08:15:07.670Z,96996.16
2019-05-21T08:17:36.932Z,97005.97
2019-05-21T08:20:10.231Z,97005.36
2019-05-21T08:22:39.256Z,97011.23
2019-05-21T08:25:08.668Z,97025.16
2019-05-21T08:27:37.944Z,97018.67
2019-05-21T08:30:07.649Z,97026.90
2019-05-21T08:32:36.970Z,97025.14
2019-05-21T08:35:06.932Z,97018.30
2019-05-21T08:37:36.208Z,97023.56
2019-05-21T08:40:06.162Z,97023.38
2019-05-21T08:42:35.423Z,97028.47
2019-05-21T08:45:06.155Z,97026.52
2019-05-21T08:47:35.550Z,97034.72
2019-05-21T08:50:05.825Z,97029.84
2019-05-21T08:52:35.181Z,97036.11
2019-05-21T08:55:04.830Z,97043.73
2019-05-21T08:57:34.136Z,97045.09
2019-05-21T09:00:03.438Z,97043.36
2019-05-21T09:02:32.767Z,97047.25
2019-05-21T09:05:02.066Z,97045.88
2019-05-21T09:07:31.408Z,97054.13
2019-05-21T09:10:00.694Z,97054.70
2019-05-21T09:12:30.032Z,97054.71
2019-05-21T09:14:59.310Z,97061.75
2019-05-21T09:17:28.661Z,97057.43
2019-05-21T09:19:57.965Z,97062.13
2019-05-21T09:22:27.234Z,97060.38
2019-05-21T09:24:56.574Z,97064.48
2019-05-21T09:27:25.874Z,97064.29
2019-05-21T09:29:56.394Z,97071.91
2019-05-21T09:32:25.778Z,97066.45
2019-05-21T09:34:55.058Z,97071.33
2019-05-21T09:37:24.321Z,97069.58
2019-05-21T09:39:53.718Z,97076.84
2019-05-21T09:42:22.967Z,97082.12
2019-05-21T09:44:52.253Z,97076.62
2019-05-21T09:47:21.533Z,97080.14
2019-05-21T09:49:50.854Z,97085.62
2019-05-21T09:52:20.120Z,97087.98
2019-05-21T09:54:49.369Z,97091.89
2019-05-21T09:57:23.923Z,97089.94
2019-05-21T10:00:01.274Z,97095.81
2019-05-21T10:02:31.712Z,97092.09
2019-05-21T10:05:02.183Z,97095.02
2019-05-21T10:07:39.937Z,97098.73
2019-05-21T10:10:02.944Z,97101.87
2019-05-21T10:12:32.238Z,97101.30
2019-05-21T10:15:01.507Z,97098.91
2019-05-21T10:17:30.851Z,97110.08
2019-05-21T10:20:00.259Z,97104.39
2019-05-21T10:22:29.573Z,97106.31
2019-05-21T10:24:58.847Z,97110.63
2019-05-21T10:27:28.177Z,97118.27
2019-05-21T10:29:57.563Z,97114.55
2019-05-21T10:32:26.906Z,97108.89
2019-05-21T10:34:56.190Z,97118.46
2019-05-21T10:37:25.492Z,97112.59
2019-05-21T10:39:54.826Z,97123.59
2019-05-21T10:42:25.140Z,97119.67
2019-05-21T10:44:55.642Z,97132.98
2019-05-21T10:47:24.920Z,97128.27
2019-05-21T10:49:54.252Z,97132.14
2019-05-21T10:52:23.797Z,97133.36
2019-05-21T10:54:53.172Z,97138.03
2019-05-21T10:57:22.475Z,97137.22
2019-05-21T10:59:51.849Z,97136.47
2019-05-21T11:02:37.314Z,97141.53
2019-05-21T11:05:10.754Z,97141.73
2019-05-21T11:07:40.067Z,97145.48
2019-05-21T11:10:10.272Z,97146.22
2019-05-21T11:12:39.557Z,97148.02
2019-05-21T11:15:10.694Z,97152.89
2019-05-21T11:17:53.407Z,97149.59
2019-05-21T11:20:11.698Z,97154.50
2019-05-21T11:22:41.007Z,97158.16
2019-05-21T11:25:10.582Z,97156.20
2019-05-21T11:27:39.993Z,97161.69
2019-05-21T11:30:10.013Z,97159.14
2019-05-21T11:32:39.325Z,97157.55
2019-05-21T11:35:09.094Z,97163.06
2019-05-21T11:37:38.389Z,97159.97
2019-05-21T11:40:09.426Z,97164.28
2019-05-21T11:42:38.730Z,97170.03
2019-05-21T11:45:08.928Z,97168.45
2019-05-21T11:47:38.277Z,97172.34
2019-05-21T11:50:08.171Z,97176.66
2019-05-21T11:52:37.507Z,97170.75
2019-05-21T11:55:07.306Z,97180.47
2019-05-21T11:57:36.587Z,97177.65
2019-05-21T12:00:08.240Z,97179.66
2019-05-21T12:02:37.516Z,97185.06
2019-05-21T12:05:07.145Z,97188.33
2019-05-21T12:07:36.715Z,97191.05
2019-05-21T12:10:07.081Z,97191.78
2019-05-21T12:12:36.339Z,97194.44
2019-05-21T12:15:06.323Z,97193.03
2019-05-21T12:17:35.795Z,97191.27
2019-05-21T12:20:06.798Z,97192.48
2019-05-21T12:22:37.111Z,97196.78
2019-05-21T12:25:07.493Z,97195.66
2019-05-21T12:27:37.043Z,97188.41
2019-05-21T12:30:07.439Z,97191.17
2019-05-21T12:32:36.720Z,97191.11
2019-05-21T12:35:07.654Z,97192.95
2019-05-21T12:37:36.990Z,97198.70
2019-05-21T12:40:08.330Z,97190.19
2019-05-21T12:42:37.630Z,97198.34
2019-05-21T12:45:08.037Z,97205.12
2019-05-21T12:47:37.359Z,97209.97
2019-05-21T12:50:07.161Z,97223.36
2019-05-21T12:52:36.494Z,97214.51
2019-05-21T12:55:06.261Z,97216.00
2019-05-21T12:57:35.554Z,97228.69
2019-05-21T13:00:06.675Z,97229.68
2019-05-21T13:02:35.967Z,97235.56
2019-05-21T13:05:05.602Z,97237.27
2019-05-21T13:07:34.852Z,97235.79
2019-05-21T13:10:05.334Z,97235.20
2019-05-21T13:12:34.734Z,97242.08
2019-05-21T13:15:04.059Z,97249.02
2019-05-21T13:17:34.838Z,97251.20
2019-05-21T13:20:05.141Z,97260.08
2019-05-21T13:22:34.598Z,97268.94
2019-05-21T13:25:03.941Z,97266.83
2019-05-21T13:27:34.799Z,97271.38
2019-05-21T13:30:05.064Z,97279.63
2019-05-21T13:32:34.320Z,97280.63
2019-05-21T13:35:03.667Z,97290.64
2019-05-21T13:37:33.189Z,97298.48
2019-05-21T13:40:02.488Z,97297.89
2019-05-21T13:42:31.794Z,97304.77
2019-05-21T13:45:01.085Z,97309.86
2019-05-21T13:47:30.384Z,97312.22
2019-05-21T13:49:59.692Z,97312.22
2019-05-21T13:52:29.036Z,97311.44
2019-05-21T13:54:58.328Z,97316.34
2019-05-21T13:57:28.017Z,97322.03
2019-05-21T13:59:57.323Z,97317.72
2019-05-21T14:02:26.985Z,97320.44
2019-05-21T14:04:59.490Z,97323.02
2019-05-21T14:07:28.865Z,97320.05
2019-05-21T14:10:13.360Z,97322.60
2019-05-21T14:12:29.573Z,97326.92
2019-05-21T14:14:58.880Z,97333.00
2019-05-21T14:17:28.243Z,97337.31
2019-05-21T14:19:57.515Z,97340.45
2019-05-21T14:22:26.818Z,97344.98
2019-05-21T14:24:56.318Z,97352.62
2019-05-21T14:27:41.654Z,97352.62
2019-05-21T14:29:56.730Z,97354.59
2019-05-21T14:32:27.117Z,97358.91
2019-05-21T14:35:01.418Z,97360.48
2019-05-21T14:37:27.459Z,97368.30
2019-05-21T14:39:56.768Z,97367.13
2019-05-21T14:42:26.057Z,97366.27
2019-05-21T14:44:55.398Z,97371.97
2019-05-21T14:47:24.691Z,97378.02
2019-05-21T14:49:54.014Z,97374.72
2019-05-21T14:52:23.260Z,97386.11
2019-05-21T14:54:52.586Z,97379.23
2019-05-21T14:57:21.838Z,97382.77
2019-05-21T14:59:52.916Z,97386.14
2019-05-21T15:02:22.194Z,97389.88
2019-05-21T15:04:51.632Z,97385.95
2019-05-21T15:07:20.975Z,97395.37
2019-05-21T15:09:53.357Z,97393.80
2019-05-21T15:12:21.273Z,97394.22
2019-05-21T15:14:50.553Z,97396.77
2019-05-21T15:17:19.882Z,97407.17
2019-05-21T15:19:53.312Z,97406.78
2019-05-21T15:22:22.606Z,97411.89
2019-05-21T15:24:51.903Z,97413.66
2019-05-21T15:27:21.265Z,97414.42
2019-05-21T15:29:50.600Z,97421.30
2019-05-21T15:32:19.867Z,97428.38
2019-05-21T15:34:49.170Z,97432.89
2019-05-21T15:37:18.764Z,97434.27
2019-05-21T15:39:48.249Z,97431.13
2019-05-21T15:42:17.547Z,97437.42
2019-05-21T15:44:46.832Z,97440.75
2019-05-21T15:47:16.327Z,97454.09
2019-05-21T15:49:45.638Z,97446.43
2019-05-21T15:52:14.938Z,97451.92
2019-05-21T15:54:44.268Z,97459.56
2019-05-21T15:57:13.555Z,97455.47
2019-05-21T15:59:43.010Z,97461.91
2019-05-21T16:02:12.367Z,97459.56
2019-05-21T16:04:41.744Z,97465.81
2019-05-21T16:07:11.348Z,97470.73
2019-05-21T16:09:40.616Z,97467.76
2019-05-21T16:12:12.484Z,97472.82
2019-05-21T16:14:41.780Z,97474.18
2019-05-21T16:17:12.179Z,97478.50
2019-05-21T16:19:41.523Z,97479.68
2019-05-21T16:22:10.987Z,97491.80
2019-05-21T16:24:41.637Z,97491.38
2019-05-21T16:27:12.892Z,97501.98
2019-05-21T16:29:44.136Z,97501.19
2019-05-21T16:32:13.440Z,97504.31
2019-05-21T16:34:43.694Z,97506.27
2019-05-21T16:37:13.088Z,97508.02
2019-05-21T16:39:42.384Z,97515.13
2019-05-21T16:42:11.692Z,97518.41
2019-05-21T16:44:41.045Z,97514.27
2019-05-21T16:47:10.637Z,97509.77
2019-05-21T16:49:39.934Z,97514.47
2019-05-21T16:52:09.633Z,97509.57
2019-05-21T16:54:40.096Z,97510.94
2019-05-21T16:57:10.971Z,97515.04
2019-05-21T16:59:40.372Z,97518.80
2019-05-21T17:02:11.475Z,97525.81
2019-05-21T17:04:41.392Z,97523.50
2019-05-21T17:07:11.101Z,97527.44
2019-05-21T17:09:40.646Z,97539.78
2019-05-21T17:12:10.327Z,97534.07
2019-05-21T17:14:40.243Z,97541.70
2019-05-21T17:17:09.744Z,97545.99
2019-05-21T17:19:39.589Z,97542.26
2019-05-21T17:22:10.301Z,97546.58
2019-05-21T17:24:39.899Z,97553.94
2019-05-21T17:27:10.524Z,97554.33
2019-05-21T17:29:39.965Z,97559.43
2019-05-21T17:32:09.469Z,97560.59
2019-05-21T17:34:39.053Z,97566.88
2019-05-21T17:37:09.399Z,97567.92
2019-05-21T17:39:39.009Z,97575.92
2019-05-21T17:42:15.703Z,97567.45
2019-05-21T17:44:39.618Z,97573.55
2019-05-21T17:47:10.773Z,97576.50
2019-05-21T17:49:40.098Z,97574.49
2019-05-21T17:52:09.453Z,97578.20
2019-05-21T17:54:55.263Z,97579.25
2019-05-21T17:57:10.034Z,97577.44
2019-05-21T17:59:39.345Z,97589.14
2019-05-21T18:02:12.656Z,97590.27
2019-05-21T18:04:42.381Z,97589.38
2019-05-21T18:07:14.985Z,97600.90
2019-05-21T18:09:44.370Z,97596.17
2019-05-21T18:12:29.752Z,97602.41
2019-05-21T18:14:47.334Z,97604.98
2019-05-21T18:17:18.457Z,97608.27
2019-05-21T18:19:49.293Z,97613.63
2019-05-21T18:22:19.680Z,97618.28
2019-05-21T18:24:49.886Z,97630.25
2019-05-21T18:27:20.307Z,97630.63
2019-05-21T18:29:49.761Z,97629.45
2019-05-21T18:32:19.213Z,97638.34
2019-05-21T18:34:48.891Z,97641.42
2019-05-21T18:37:18.532Z,97642.59
2019-05-21T18:39:49.652Z,97645.91
2019-05-21T18:42:22.487Z,97654.52
2019-05-21T18:44:51.254Z,97657.64
2019-05-21T18:47:20.613Z,97653.56
2019-05-21T18:49:51.045Z,97664.08
2019-05-21T18:52:20.349Z,97664.50
2019-05-21T18:54:50.683Z,97669.36
2019-05-21T18:57:19.983Z,97668.87
2019-05-21T18:59:49.437Z,97681.70
2019-05-21T19:02:18.927Z,97681.83
2019-05-21T19:04:48.248Z,97684.41
2019-05-21T19:07:17.618Z,97684.16
2019-05-21T19:09:46.953Z,97684.78
2019-05-21T19:12:16.607Z,97693.55
2019-05-21T19:14:45.930Z,97696.70
2019-05-21T19:17:16.812Z,97710.78
2019-05-21T19:19:48.058Z,97708.78
2019-05-21T19:22:19.403Z,97722.54
2019-05-21T19:24:49.072Z,97721.50
2019-05-21T19:27:18.847Z,97729.35
2019-05-21T19:29:48.936Z,97732.72
2019-05-21T19:32:18.270Z,97735.25
2019-05-21T19:34:47.671Z,97735.56
2019-05-21T19:37:17.029Z,97737.70
2019-05-21T19:39:46.512Z,97737.07
2019-05-21T19:42:15.873Z,97749.78
2019-05-21T19:44:45.220Z,97746.92
2019-05-21T19:47:14.616Z,97747.30
2019-05-21T19:49:43.903Z,97751.83
2019-05-21T19:52:14.427Z,97758.89
2019-05-21T19:54:43.872Z,97764.41
2019-05-21T19:57:13.541Z,97762.37
2019-05-21T19:59:42.971Z,97772.06
2019-05-21T20:02:13.337Z,97772.50
2019-05-21T20:04:43.275Z,97778.87
2019-05-21T20:07:15.151Z,97787.79
2019-05-21T20:09:45.447Z,97785.58
2019-05-21T20:12:15.391Z,97788.20
2019-05-21T20:14:45.960Z,97795.22
2019-05-21T20:17:17.110Z,97789.69
2019-05-21T20:19:47.668Z,97793.97
2019-05-21T20:22:17.708Z,97792.44
2019-05-21T20:24:47.494Z,97799.87
2019-05-21T20:27:17.666Z,97803.19
2019-05-21T20:29:47.245Z,97799.72
2019-05-21T20:32:19.569Z,97797.81
2019-05-21T20:34:51.515Z,97804.63
2019-05-21T20:37:26.500Z,97807.28
2019-05-21T20:39:57.068Z,97810.98
2019-05-21T20:42:29.093Z,97812.98
2019-05-21T20:44:59.229Z,97811.03
2019-05-21T20:47:28.905Z,97813.80
2019-05-21T20:49:58.579Z,97817.67
2019-05-21T20:52:28.128Z,97816.83
2019-05-21T20:54:59.491Z,97819.98
2019-05-21T20:57:31.690Z,97816.51
2019-05-21T21:00:02.208Z,97819.67
2019-05-21T21:02:32.392Z,97821.36
2019-05-21T21:05:03.225Z,97823.28
2019-05-21T21:07:34.184Z,97820.91
2019-05-21T21:10:03.802Z,97823.90
2019-05-21T21:12:38.539Z,97821.27
2019-05-21T21:15:08.501Z,97824.24
2019-05-21T21:17:38.192Z,97831.70
2019-05-21T21:20:08.148Z,97832.33
2019-05-21T21:22:38.230Z,97832.97
2019-05-21T21:25:10.227Z,97834.70
2019-05-21T21:27:40.333Z,97835.28
2019-05-21T21:30:10.252Z,97837.81
2019-05-21T21:32:40.059Z,97835.59
2019-05-21T21:35:10.780Z,97847.46
2019-05-21T21:37:40.518Z,97840.55
2019-05-21T21:40:12.148Z,97844.60
2019-05-21T21:42:42.674Z,97848.55
2019-05-21T21:45:12.587Z,97845.51
2019-05-21T21:47:42.760Z,97848.61
2019-05-21T21:50:14.261Z,97847.73
2019-05-21T21:52:44.342Z,97846.66
2019-05-21T21:55:14.095Z,97852.66
2019-05-21T21:57:43.382Z,97850.67
2019-05-21T22:01:17.857Z,97846.66
2019-05-21T22:03:48.745Z,97848.92
2019-05-21T22:06:20.240Z,97849.41
2019-05-21T22:08:50.760Z,97861.21
2019-05-21T22:11:21.563Z,97851.78
2019-05-21T22:13:50.939Z,97862.09
2019-05-21T22:16:22.184Z,97861.95
2019-05-21T22:18:51.558Z,97853.82
2019-05-21T22:21:22.395Z,97858.73
2019-05-21T22:23:51.746Z,97869.06
2019-05-21T22:26:21.894Z,97870.47
2019-05-21T22:28:51.260Z,97864.80
2019-05-21T22:31:20.571Z,97870.47
2019-05-21T22:33:49.870Z,97868.58
2019-05-21T22:36:19.372Z,97877.66
2019-05-21T22:38:48.877Z,97877.70
2019-05-21T22:41:18.455Z,97882.70
2019-05-21T22:43:47.756Z,97880.70
2019-05-21T22:46:17.028Z,97879.54
2019-05-21T22:48:46.630Z,97881.91
2019-05-21T22:51:16.223Z,97882.06
2019-05-21T22:53:45.607Z,97885.33
2019-05-21T22:56:15.006Z,97892.51
2019-05-21T22:58:44.272Z,97890.19
2019-05-21T23:01:14.273Z,97886.23
2019-05-21T23:03:44.271Z,97882.80
2019-05-21T23:06:13.745Z,97884.89
2019-05-21T23:08:43.302Z,97881.94
2019-05-21T23:11:12.593Z,97887.75
2019-05-21T23:13:41.852Z,97885.61
2019-05-21T23:16:11.527Z,97880.98
2019-05-21T23:18:41.328Z,97885.97
2019-05-21T23:21:13.092Z,97884.75
2019-05-21T23:23:44.034Z,97881.41
2019-05-21T23:26:13.737Z,97885.55
2019-05-21T23:28:44.825Z,97896.46
2019-05-21T23:31:16.099Z,97895.60
2019-05-21T23:33:45.638Z,97894.20
2019-05-21T23:36:15.036Z,97894.93
2019-05-21T23:38:45.203Z,97890.50
2019-05-21T23:41:14.667Z,97896.94
2019-05-21T23:43:43.933Z,97890.61
2019-05-21T23:46:14.409Z,97894.57
2019-05-21T23:48:43.977Z,97897.09
2019-05-21T23:51:13.299Z,97899.11
2019-05-21T23:53:42.860Z,97900.91
2019-05-21T23:56:12.146Z,97899.69
2019-05-21T23:58:41.806Z,97895.72
